sensor_id;sensor_type;location;lat;lon;timestamp;pressure;altitude;pressure_sealevel;temperature;humidity
59951;BME280;45812;53.540;9.774;2023-11-21T00:01:49;100949.00;;;10.14;100.00
59951;BME280;45812;53.540;9.774;2023-11-21T00:04:15;100949.66;;;10.08;100.00
59951;BME280;45812;53.540;9.774;2023-11-21T00:06:40;100966.97;;;10.12;100.00
59951;BME280;45812;53.540;9.774;2023-11-21T00:09:06;100961.13;;;10.09;100.00
59951;BME280;45812;53.540;9.774;2023-11-21T00:11:33;100967.28;;;10.09;100.00
59951;BME280;45812;53.540;9.774;2023-11-21T00:13:58;100967.94;;;10.11;100.00
59951;BME280;45812;53.540;9.774;2023-11-21T00:16:24;100972.44;;;10.11;100.00
59951;BME280;45812;53.540;9.774;2023-11-21T00:18:50;100971.75;;;10.09;100.00
59951;BME280;45812;53.540;9.774;2023-11-21T00:21:16;100978.22;;;10.06;100.00
59951;BME280;45812;53.540;9.774;2023-11-21T00:23:41;100980.56;;;10.09;100.00
59951;BME280;45812;53.540;9.774;2023-11-21T00:26:06;100983.56;;;10.06;100.00
59951;BME280;45812;53.540;9.774;2023-11-21T00:28:32;100992.53;;;10.05;100.00
59951;BME280;45812;53.540;9.774;2023-11-21T00:30:57;100990.13;;;10.02;100.00
59951;BME280;45812;53.540;9.774;2023-11-21T00:33:22;100986.81;;;10.00;100.00
59951;BME280;45812;53.540;9.774;2023-11-21T00:35:48;100991.44;;;9.98;100.00
59951;BME280;45812;53.540;9.774;2023-11-21T00:38:13;100997.06;;;9.95;100.00
59951;BME280;45812;53.540;9.774;2023-11-21T00:40:38;100991.41;;;9.90;100.00
59951;BME280;45812;53.540;9.774;2023-11-21T00:43:03;100994.06;;;9.90;100.00
59951;BME280;45812;53.540;9.774;2023-11-21T00:45:29;101001.19;;;9.89;100.00
59951;BME280;45812;53.540;9.774;2023-11-21T00:47:54;101003.34;;;9.86;100.00
59951;BME280;45812;53.540;9.774;2023-11-21T00:50:19;101005.44;;;9.82;100.00
59951;BME280;45812;53.540;9.774;2023-11-21T00:52:45;101006.44;;;9.81;100.00
59951;BME280;45812;53.540;9.774;2023-11-21T00:55:10;101016.53;;;9.78;100.00
59951;BME280;45812;53.540;9.774;2023-11-21T00:57:37;101022.16;;;9.75;100.00
59951;BME280;45812;53.540;9.774;2023-11-21T01:00:02;101028.78;;;9.70;100.00
59951;BME280;45812;53.540;9.774;2023-11-21T01:02:32;101027.09;;;9.69;100.00
59951;BME280;45812;53.540;9.774;2023-11-21T01:04:57;101030.34;;;9.63;100.00
59951;BME280;45812;53.540;9.774;2023-11-21T01:07:23;101049.63;;;9.65;100.00
59951;BME280;45812;53.540;9.774;2023-11-21T01:09:48;101044.63;;;9.62;100.00
59951;BME280;45812;53.540;9.774;2023-11-21T01:12:13;101044.94;;;9.59;100.00
59951;BME280;45812;53.540;9.774;2023-11-21T01:14:38;101053.88;;;9.58;100.00
59951;BME280;45812;53.540;9.774;2023-11-21T01:17:04;101063.69;;;9.58;100.00
59951;BME280;45812;53.540;9.774;2023-11-21T01:19:30;101059.50;;;9.55;100.00
59951;BME280;45812;53.540;9.774;2023-11-21T01:21:55;101065.81;;;9.54;100.00
59951;BME280;45812;53.540;9.774;2023-11-21T01:24:23;101074.91;;;9.52;100.00
59951;BME280;45812;53.540;9.774;2023-11-21T01:26:48;101079.66;;;9.48;100.00
59951;BME280;45812;53.540;9.774;2023-11-21T01:29:13;101080.56;;;9.39;100.00
59951;BME280;45812;53.540;9.774;2023-11-21T01:31:40;101091.22;;;9.39;100.00
59951;BME280;45812;53.540;9.774;2023-11-21T01:34:05;101090.81;;;9.34;100.00
59951;BME280;45812;53.540;9.774;2023-11-21T01:36:31;101082.16;;;9.32;100.00
59951;BME280;45812;53.540;9.774;2023-11-21T01:38:57;101094.47;;;9.33;100.00
59951;BME280;45812;53.540;9.774;2023-11-21T01:41:24;101095.44;;;9.32;100.00
59951;BME280;45812;53.540;9.774;2023-11-21T01:43:51;101098.78;;;9.34;100.00
59951;BME280;45812;53.540;9.774;2023-11-21T01:46:18;101096.97;;;9.34;100.00
59951;BME280;45812;53.540;9.774;2023-11-21T01:48:45;101100.75;;;9.32;100.00
59951;BME280;45812;53.540;9.774;2023-11-21T01:51:11;101106.94;;;9.23;100.00
59951;BME280;45812;53.540;9.774;2023-11-21T01:53:36;101110.03;;;9.18;100.00
59951;BME280;45812;53.540;9.774;2023-11-21T01:56:01;101112.16;;;9.15;100.00
59951;BME280;45812;53.540;9.774;2023-11-21T01:58:27;101117.75;;;9.12;100.00
59951;BME280;45812;53.540;9.774;2023-11-21T02:00:52;101117.34;;;9.06;100.00
59951;BME280;45812;53.540;9.774;2023-11-21T02:03:19;101120.59;;;9.00;100.00
59951;BME280;45812;53.540;9.774;2023-11-21T02:05:45;101119.91;;;8.98;100.00
59951;BME280;45812;53.540;9.774;2023-11-21T02:08:11;101126.63;;;8.93;100.00
59951;BME280;45812;53.540;9.774;2023-11-21T02:10:36;101134.72;;;8.91;100.00
59951;BME280;45812;53.540;9.774;2023-11-21T02:13:02;101132.50;;;8.87;100.00
59951;BME280;45812;53.540;9.774;2023-11-21T02:15:28;101140.59;;;8.85;100.00
59951;BME280;45812;53.540;9.774;2023-11-21T02:17:54;101148.41;;;8.87;100.00
59951;BME280;45812;53.540;9.774;2023-11-21T02:20:21;101146.75;;;8.86;100.00
59951;BME280;45812;53.540;9.774;2023-11-21T02:22:56;101160.84;;;8.86;100.00
59951;BME280;45812;53.540;9.774;2023-11-21T02:25:32;101161.69;;;8.87;100.00
59951;BME280;45812;53.540;9.774;2023-11-21T02:27:58;101166.84;;;8.88;100.00
59951;BME280;45812;53.540;9.774;2023-11-21T02:30:24;101164.06;;;8.90;100.00
59951;BME280;45812;53.540;9.774;2023-11-21T02:32:57;101176.34;;;8.91;100.00
59951;BME280;45812;53.540;9.774;2023-11-21T02:35:22;101170.50;;;8.87;100.00
59951;BME280;45812;53.540;9.774;2023-11-21T02:37:48;101170.38;;;8.79;100.00
59951;BME280;45812;53.540;9.774;2023-11-21T02:40:13;101178.06;;;8.82;100.00
59951;BME280;45812;53.540;9.774;2023-11-21T02:42:42;101185.31;;;8.80;100.00
59951;BME280;45812;53.540;9.774;2023-11-21T02:45:08;101178.63;;;8.76;100.00
59951;BME280;45812;53.540;9.774;2023-11-21T02:47:33;101192.03;;;8.74;100.00
59951;BME280;45812;53.540;9.774;2023-11-21T02:49:59;101188.81;;;8.71;100.00
59951;BME280;45812;53.540;9.774;2023-11-21T02:52:24;101194.56;;;8.66;100.00
59951;BME280;45812;53.540;9.774;2023-11-21T02:54:50;101195.66;;;8.64;100.00
59951;BME280;45812;53.540;9.774;2023-11-21T02:57:15;101196.66;;;8.63;100.00
59951;BME280;45812;53.540;9.774;2023-11-21T02:59:40;101193.59;;;8.58;100.00
59951;BME280;45812;53.540;9.774;2023-11-21T03:02:05;101197.63;;;8.52;100.00
59951;BME280;45812;53.540;9.774;2023-11-21T03:04:34;101194.56;;;8.47;100.00
59951;BME280;45812;53.540;9.774;2023-11-21T03:06:59;101197.34;;;8.45;100.00
59951;BME280;45812;53.540;9.774;2023-11-21T03:09:25;101194.28;;;8.40;100.00
59951;BME280;45812;53.540;9.774;2023-11-21T03:11:51;101192.63;;;8.39;100.00
59951;BME280;45812;53.540;9.774;2023-11-21T03:14:17;101213.00;;;8.39;100.00
59951;BME280;45812;53.540;9.774;2023-11-21T03:16:42;101210.75;;;8.44;100.00
59951;BME280;45812;53.540;9.774;2023-11-21T03:19:09;101225.13;;;8.41;100.00
59951;BME280;45812;53.540;9.774;2023-11-21T03:21:34;101236.59;;;8.42;100.00
59951;BME280;45812;53.540;9.774;2023-11-21T03:24:00;101230.31;;;8.43;100.00
59951;BME280;45812;53.540;9.774;2023-11-21T03:26:25;101232.97;;;8.43;100.00
59951;BME280;45812;53.540;9.774;2023-11-21T03:28:50;101234.78;;;8.42;100.00
59951;BME280;45812;53.540;9.774;2023-11-21T03:31:18;101236.72;;;8.40;100.00
59951;BME280;45812;53.540;9.774;2023-11-21T03:33:44;101236.44;;;8.43;100.00
59951;BME280;45812;53.540;9.774;2023-11-21T03:36:11;101244.81;;;8.39;100.00
59951;BME280;45812;53.540;9.774;2023-11-21T03:38:36;101244.22;;;8.35;100.00
59951;BME280;45812;53.540;9.774;2023-11-21T03:41:02;101248.13;;;8.31;100.00
59951;BME280;45812;53.540;9.774;2023-11-21T03:43:27;101253.41;;;8.31;100.00
59951;BME280;45812;53.540;9.774;2023-11-21T03:45:52;101253.56;;;8.30;100.00
59951;BME280;45812;53.540;9.774;2023-11-21T03:48:17;101261.66;;;8.28;100.00
59951;BME280;45812;53.540;9.774;2023-11-21T03:50:43;101259.97;;;8.27;100.00
59951;BME280;45812;53.540;9.774;2023-11-21T03:53:08;101269.88;;;8.25;100.00
59951;BME280;45812;53.540;9.774;2023-11-21T03:55:33;101269.31;;;8.22;100.00
59951;BME280;45812;53.540;9.774;2023-11-21T03:57:58;101267.06;;;8.17;100.00
59951;BME280;45812;53.540;9.774;2023-11-21T04:00:24;101273.47;;;8.14;100.00
59951;BME280;45812;53.540;9.774;2023-11-21T04:02:52;101276.25;;;8.13;100.00
59951;BME280;45812;53.540;9.774;2023-11-21T04:05:17;101286.59;;;8.16;100.00
59951;BME280;45812;53.540;9.774;2023-11-21T04:07:42;101285.91;;;8.14;100.00
59951;BME280;45812;53.540;9.774;2023-11-21T04:10:08;101291.91;;;8.16;100.00
59951;BME280;45812;53.540;9.774;2023-11-21T04:12:35;101294.41;;;8.17;100.00
59951;BME280;45812;53.540;9.774;2023-11-21T04:15:00;101294.31;;;8.19;100.00
59951;BME280;45812;53.540;9.774;2023-11-21T04:17:25;101302.25;;;8.19;100.00
59951;BME280;45812;53.540;9.774;2023-11-21T04:19:51;101309.25;;;8.20;100.00
59951;BME280;45812;53.540;9.774;2023-11-21T04:22:16;101308.28;;;8.21;100.00
59951;BME280;45812;53.540;9.774;2023-11-21T04:24:41;101317.06;;;8.22;100.00
59951;BME280;45812;53.540;9.774;2023-11-21T04:27:06;101310.09;;;8.20;100.00
59951;BME280;45812;53.540;9.774;2023-11-21T04:29:32;101321.91;;;8.16;100.00
59951;BME280;45812;53.540;9.774;2023-11-21T04:31:57;101328.19;;;8.15;100.00
59951;BME280;45812;53.540;9.774;2023-11-21T04:34:22;101330.97;;;8.14;100.00
59951;BME280;45812;53.540;9.774;2023-11-21T04:36:49;101339.91;;;8.13;100.00
59951;BME280;45812;53.540;9.774;2023-11-21T04:39:15;101340.75;;;8.13;100.00
59951;BME280;45812;53.540;9.774;2023-11-21T04:41:40;101342.41;;;8.14;100.00
59951;BME280;45812;53.540;9.774;2023-11-21T04:44:06;101350.25;;;8.16;100.00
59951;BME280;45812;53.540;9.774;2023-11-21T04:46:31;101345.34;;;8.11;100.00
59951;BME280;45812;53.540;9.774;2023-11-21T04:48:57;101349.94;;;8.09;100.00
59951;BME280;45812;53.540;9.774;2023-11-21T04:51:23;101351.06;;;8.07;100.00
59951;BME280;45812;53.540;9.774;2023-11-21T04:53:48;101351.63;;;8.10;100.00
59951;BME280;45812;53.540;9.774;2023-11-21T04:56:13;101364.59;;;8.13;100.00
59951;BME280;45812;53.540;9.774;2023-11-21T04:58:38;101364.75;;;8.12;100.00
59951;BME280;45812;53.540;9.774;2023-11-21T05:01:05;101365.84;;;8.09;100.00
59951;BME280;45812;53.540;9.774;2023-11-21T05:03:30;101362.09;;;8.12;100.00
59951;BME280;45812;53.540;9.774;2023-11-21T05:05:56;101370.63;;;8.15;100.00
59951;BME280;45812;53.540;9.774;2023-11-21T05:08:21;101373.41;;;8.14;100.00
59951;BME280;45812;53.540;9.774;2023-11-21T05:10:47;101373.25;;;8.15;100.00
59951;BME280;45812;53.540;9.774;2023-11-21T05:13:13;101378.44;;;8.17;100.00
59951;BME280;45812;53.540;9.774;2023-11-21T05:15:42;101380.09;;;8.18;100.00
59951;BME280;45812;53.540;9.774;2023-11-21T05:18:07;101386.38;;;8.17;100.00
59951;BME280;45812;53.540;9.774;2023-11-21T05:20:32;101384.56;;;8.17;100.00
59951;BME280;45812;53.540;9.774;2023-11-21T05:22:58;101387.13;;;8.19;100.00
59951;BME280;45812;53.540;9.774;2023-11-21T05:25:23;101393.28;;;8.19;100.00
59951;BME280;45812;53.540;9.774;2023-11-21T05:27:49;101400.25;;;8.20;100.00
59951;BME280;45812;53.540;9.774;2023-11-21T05:30:14;101403.88;;;8.19;100.00
59951;BME280;45812;53.540;9.774;2023-11-21T05:32:40;101408.34;;;8.19;100.00
59951;BME280;45812;53.540;9.774;2023-11-21T05:35:09;101403.97;;;8.18;100.00
59951;BME280;45812;53.540;9.774;2023-11-21T05:37:37;101417.84;;;8.22;100.00
59951;BME280;45812;53.540;9.774;2023-11-21T05:40:05;101423.28;;;8.20;100.00
59951;BME280;45812;53.540;9.774;2023-11-21T05:42:34;101423.13;;;8.22;100.00
59951;BME280;45812;53.540;9.774;2023-11-21T05:45:00;101424.13;;;8.20;100.00
59951;BME280;45812;53.540;9.774;2023-11-21T05:47:36;101424.25;;;8.19;100.00
59951;BME280;45812;53.540;9.774;2023-11-21T05:50:01;101437.63;;;8.17;100.00
59951;BME280;45812;53.540;9.774;2023-11-21T05:52:27;101434.97;;;8.17;100.00
59951;BME280;45812;53.540;9.774;2023-11-21T05:54:52;101447.38;;;8.17;100.00
59951;BME280;45812;53.540;9.774;2023-11-21T05:57:17;101448.13;;;8.19;100.00
59951;BME280;45812;53.540;9.774;2023-11-21T05:59:43;101453.53;;;8.17;100.00
59951;BME280;45812;53.540;9.774;2023-11-21T06:02:08;101458.00;;;8.17;100.00
59951;BME280;45812;53.540;9.774;2023-11-21T06:04:33;101461.63;;;8.16;100.00
59951;BME280;45812;53.540;9.774;2023-11-21T06:06:58;101466.91;;;8.16;100.00
59951;BME280;45812;53.540;9.774;2023-11-21T06:09:23;101468.16;;;8.12;100.00
59951;BME280;45812;53.540;9.774;2023-11-21T06:11:50;101474.88;;;8.16;100.00
59951;BME280;45812;53.540;9.774;2023-11-21T06:14:15;101482.97;;;8.14;100.00
59951;BME280;45812;53.540;9.774;2023-11-21T06:16:43;101488.13;;;8.16;100.00
59951;BME280;45812;53.540;9.774;2023-11-21T06:19:10;101485.47;;;8.16;100.00
59951;BME280;45812;53.540;9.774;2023-11-21T06:21:35;101500.41;;;8.17;100.00
59951;BME280;45812;53.540;9.774;2023-11-21T06:24:00;101493.44;;;8.16;100.00
59951;BME280;45812;53.540;9.774;2023-11-21T06:26:26;101496.34;;;8.13;100.00
59951;BME280;45812;53.540;9.774;2023-11-21T06:28:52;101499.97;;;8.12;100.00
59951;BME280;45812;53.540;9.774;2023-11-21T06:31:17;101502.91;;;8.09;100.00
59951;BME280;45812;53.540;9.774;2023-11-21T06:33:43;101508.19;;;8.09;100.00
59951;BME280;45812;53.540;9.774;2023-11-21T06:36:08;101506.25;;;8.11;100.00
59951;BME280;45812;53.540;9.774;2023-11-21T06:38:36;101499.41;;;8.08;100.00
59951;BME280;45812;53.540;9.774;2023-11-21T06:41:01;101511.81;;;8.08;100.00
59951;BME280;45812;53.540;9.774;2023-11-21T06:43:27;101519.63;;;8.09;100.00
59951;BME280;45812;53.540;9.774;2023-11-21T06:45:52;101528.44;;;8.10;100.00
59951;BME280;45812;53.540;9.774;2023-11-21T06:48:18;101539.16;;;8.08;100.00
59951;BME280;45812;53.540;9.774;2023-11-21T06:50:43;101547.97;;;8.09;100.00
59951;BME280;45812;53.540;9.774;2023-11-21T06:53:08;101547.00;;;8.10;100.00
59951;BME280;45812;53.540;9.774;2023-11-21T06:55:34;101545.31;;;8.09;100.00
59951;BME280;45812;53.540;9.774;2023-11-21T06:58:00;101547.13;;;8.08;100.00
59951;BME280;45812;53.540;9.774;2023-11-21T07:00:26;101561.22;;;8.09;100.00
59951;BME280;45812;53.540;9.774;2023-11-21T07:02:53;101564.84;;;8.08;100.00
59951;BME280;45812;53.540;9.774;2023-11-21T07:05:18;101566.78;;;8.06;100.00
59951;BME280;45812;53.540;9.774;2023-11-21T07:07:46;101559.81;;;8.05;100.00
59951;BME280;45812;53.540;9.774;2023-11-21T07:10:11;101573.19;;;8.03;100.00
59951;BME280;45812;53.540;9.774;2023-11-21T07:12:37;101581.84;;;8.05;100.00
59951;BME280;45812;53.540;9.774;2023-11-21T07:15:03;101597.50;;;8.08;100.00
59951;BME280;45812;53.540;9.774;2023-11-21T07:17:30;101586.31;;;8.05;100.00
59951;BME280;45812;53.540;9.774;2023-11-21T07:19:56;101601.59;;;8.12;100.00
59951;BME280;45812;53.540;9.774;2023-11-21T07:22:21;101605.19;;;8.11;100.00
59951;BME280;45812;53.540;9.774;2023-11-21T07:24:50;101601.59;;;8.12;100.00
59951;BME280;45812;53.540;9.774;2023-11-21T07:27:18;101608.44;;;8.15;100.00
59951;BME280;45812;53.540;9.774;2023-11-21T07:29:44;101615.41;;;8.16;100.00
59951;BME280;45812;53.540;9.774;2023-11-21T07:32:09;101619.88;;;8.15;100.00
59951;BME280;45812;53.540;9.774;2023-11-21T07:34:35;101624.09;;;8.18;100.00
59951;BME280;45812;53.540;9.774;2023-11-21T07:37:01;101631.09;;;8.19;100.00
59951;BME280;45812;53.540;9.774;2023-11-21T07:39:26;101628.44;;;8.19;100.00
59951;BME280;45812;53.540;9.774;2023-11-21T07:41:52;101637.25;;;8.19;100.00
59951;BME280;45812;53.540;9.774;2023-11-21T07:44:17;101629.16;;;8.21;100.00
59951;BME280;45812;53.540;9.774;2023-11-21T07:46:42;101637.84;;;8.23;100.00
59951;BME280;45812;53.540;9.774;2023-11-21T07:49:08;101634.09;;;8.26;100.00
59951;BME280;45812;53.540;9.774;2023-11-21T07:51:34;101627.81;;;8.27;100.00
59951;BME280;45812;53.540;9.774;2023-11-21T07:53:59;101637.31;;;8.29;100.00
59951;BME280;45812;53.540;9.774;2023-11-21T07:56:24;101644.03;;;8.33;100.00
59951;BME280;45812;53.540;9.774;2023-11-21T07:58:49;101645.00;;;8.32;100.00
59951;BME280;45812;53.540;9.774;2023-11-21T08:01:15;101651.91;;;8.35;100.00
59951;BME280;45812;53.540;9.774;2023-11-21T08:03:40;101644.78;;;8.35;100.00
59951;BME280;45812;53.540;9.774;2023-11-21T08:06:06;101654.44;;;8.36;100.00
59951;BME280;45812;53.540;9.774;2023-11-21T08:08:31;101655.41;;;8.35;100.00
59951;BME280;45812;53.540;9.774;2023-11-21T08:10:57;101657.81;;;8.38;100.00
59951;BME280;45812;53.540;9.774;2023-11-21T08:13:26;101658.78;;;8.37;100.00
59951;BME280;45812;53.540;9.774;2023-11-21T08:15:56;101667.91;;;8.44;100.00
59951;BME280;45812;53.540;9.774;2023-11-21T08:18:22;101671.00;;;8.49;100.00
59951;BME280;45812;53.540;9.774;2023-11-21T08:20:48;101671.59;;;8.53;100.00
59951;BME280;45812;53.540;9.774;2023-11-21T08:23:16;101674.13;;;8.55;100.00
59951;BME280;45812;53.540;9.774;2023-11-21T08:25:45;101675.84;;;8.56;100.00
59951;BME280;45812;53.540;9.774;2023-11-21T08:28:10;101681.84;;;8.58;100.00
59951;BME280;45812;53.540;9.774;2023-11-21T08:30:36;101684.25;;;8.61;100.00
59951;BME280;45812;53.540;9.774;2023-11-21T08:33:01;101683.59;;;8.68;100.00
59951;BME280;45812;53.540;9.774;2023-11-21T08:35:28;101690.22;;;8.74;100.00
59951;BME280;45812;53.540;9.774;2023-11-21T08:37:53;101691.06;;;8.74;100.00
59951;BME280;45812;53.540;9.774;2023-11-21T08:40:19;101696.22;;;8.76;100.00
59951;BME280;45812;53.540;9.774;2023-11-21T08:42:46;101699.84;;;8.75;100.00
59951;BME280;45812;53.540;9.774;2023-11-21T08:45:11;101708.91;;;8.72;100.00
59951;BME280;45812;53.540;9.774;2023-11-21T08:47:38;101711.56;;;8.72;100.00
59951;BME280;45812;53.540;9.774;2023-11-21T08:50:03;101719.50;;;8.72;100.00
59951;BME280;45812;53.540;9.774;2023-11-21T08:52:29;101725.66;;;8.73;100.00
59951;BME280;45812;53.540;9.774;2023-11-21T08:54:54;101730.75;;;8.76;100.00
59951;BME280;45812;53.540;9.774;2023-11-21T08:57:23;101736.06;;;8.76;100.00
59951;BME280;45812;53.540;9.774;2023-11-21T08:59:48;101738.56;;;8.77;100.00
59951;BME280;45812;53.540;9.774;2023-11-21T09:02:13;101743.75;;;8.79;100.00
59951;BME280;45812;53.540;9.774;2023-11-21T09:04:38;101747.00;;;8.83;100.00
59951;BME280;45812;53.540;9.774;2023-11-21T09:07:03;101748.28;;;8.88;100.00
59951;BME280;45812;53.540;9.774;2023-11-21T09:09:29;101754.91;;;8.94;100.00
59951;BME280;45812;53.540;9.774;2023-11-21T09:11:55;101753.94;;;8.95;100.00
59951;BME280;45812;53.540;9.774;2023-11-21T09:14:20;101762.47;;;8.98;100.00
59951;BME280;45812;53.540;9.774;2023-11-21T09:16:45;101767.78;;;8.98;100.00
59951;BME280;45812;53.540;9.774;2023-11-21T09:19:11;101764.88;;;9.01;100.00
59951;BME280;45812;53.540;9.774;2023-11-21T09:21:39;101769.78;;;9.06;100.00
59951;BME280;45812;53.540;9.774;2023-11-21T09:24:04;101761.81;;;9.06;100.00
59951;BME280;45812;53.540;9.774;2023-11-21T09:26:30;101762.41;;;9.09;100.00
59951;BME280;45812;53.540;9.774;2023-11-21T09:28:55;101770.38;;;9.09;100.00
59951;BME280;45812;53.540;9.774;2023-11-21T09:31:22;101778.34;;;9.09;100.00
59951;BME280;45812;53.540;9.774;2023-11-21T09:33:47;101780.91;;;9.11;100.00
59951;BME280;45812;53.540;9.774;2023-11-21T09:36:13;101789.94;;;9.08;100.00
59951;BME280;45812;53.540;9.774;2023-11-21T09:38:41;101794.53;;;9.06;100.00
59951;BME280;45812;53.540;9.774;2023-11-21T09:44:02;101809.19;;;9.01;100.00
59951;BME280;45812;53.540;9.774;2023-11-21T09:46:32;101815.22;;;9.03;100.00
59951;BME280;45812;53.540;9.774;2023-11-21T09:48:59;101814.09;;;9.05;100.00
59951;BME280;45812;53.540;9.774;2023-11-21T09:51:27;101813.84;;;9.08;100.00
59951;BME280;45812;53.540;9.774;2023-11-21T09:53:55;101819.63;;;9.14;100.00
59951;BME280;45812;53.540;9.774;2023-11-21T09:56:23;101818.78;;;9.13;100.00
59951;BME280;45812;53.540;9.774;2023-11-21T09:58:52;101822.66;;;9.09;100.00
59951;BME280;45812;53.540;9.774;2023-11-21T10:01:18;101830.50;;;9.10;100.00
59951;BME280;45812;53.540;9.774;2023-11-21T10:03:44;101835.09;;;9.08;100.00
59951;BME280;45812;53.540;9.774;2023-11-21T10:06:10;101841.25;;;9.09;100.00
59951;BME280;45812;53.540;9.774;2023-11-21T10:08:39;101835.34;;;9.05;100.00
59951;BME280;45812;53.540;9.774;2023-11-21T10:11:07;101837.03;;;9.06;100.00
59951;BME280;45812;53.540;9.774;2023-11-21T10:13:34;101834.63;;;9.03;100.00
59951;BME280;45812;53.540;9.774;2023-11-21T10:16:00;101826.81;;;9.02;100.00
59951;BME280;45812;53.540;9.774;2023-11-21T10:18:26;101836.78;;;9.09;100.00
59951;BME280;45812;53.540;9.774;2023-11-21T10:20:51;101829.16;;;9.16;100.00
59951;BME280;45812;53.540;9.774;2023-11-21T10:23:19;101841.78;;;9.24;100.00
59951;BME280;45812;53.540;9.774;2023-11-21T10:25:44;101842.00;;;9.32;100.00
59951;BME280;45812;53.540;9.774;2023-11-21T10:28:10;101846.06;;;9.36;100.00
59951;BME280;45812;53.540;9.774;2023-11-21T10:30:37;101849.19;;;9.41;100.00
59951;BME280;45812;53.540;9.774;2023-11-21T10:33:06;101854.09;;;9.46;100.00
59951;BME280;45812;53.540;9.774;2023-11-21T10:35:59;101859.06;;;9.50;100.00
59951;BME280;45812;53.540;9.774;2023-11-21T10:38:26;101858.78;;;9.53;100.00
59951;BME280;45812;53.540;9.774;2023-11-21T10:40:53;101853.34;;;9.55;100.00
59951;BME280;45812;53.540;9.774;2023-11-21T10:43:20;101861.88;;;9.58;100.00
59951;BME280;45812;53.540;9.774;2023-11-21T10:45:49;101866.94;;;9.61;100.00
59951;BME280;45812;53.540;9.774;2023-11-21T10:48:15;101861.34;;;9.64;99.52
59951;BME280;45812;53.540;9.774;2023-11-21T10:50:41;101866.16;;;9.70;99.55
59951;BME280;45812;53.540;9.774;2023-11-21T10:53:06;101860.19;;;9.78;98.67
59951;BME280;45812;53.540;9.774;2023-11-21T10:55:33;101864.13;;;9.84;98.04
59951;BME280;45812;53.540;9.774;2023-11-21T10:58:03;101867.13;;;9.90;97.37
59951;BME280;45812;53.540;9.774;2023-11-21T11:00:30;101867.72;;;10.03;96.11
59951;BME280;45812;53.540;9.774;2023-11-21T11:02:56;101865.25;;;10.12;95.82
59951;BME280;45812;53.540;9.774;2023-11-21T11:05:23;101862.88;;;10.18;94.73
59951;BME280;45812;53.540;9.774;2023-11-21T11:07:59;101875.84;;;10.23;94.14
59951;BME280;45812;53.540;9.774;2023-11-21T11:10:27;101875.31;;;10.29;93.12
59951;BME280;45812;53.540;9.774;2023-11-21T11:12:53;101870.97;;;10.38;92.42
59951;BME280;45812;53.540;9.774;2023-11-21T11:15:19;101878.88;;;10.49;91.86
59951;BME280;45812;53.540;9.774;2023-11-21T11:17:45;101882.13;;;10.62;90.51
59951;BME280;45812;53.540;9.774;2023-11-21T11:20:12;101875.81;;;10.63;88.93
59951;BME280;45812;53.540;9.774;2023-11-21T11:22:54;101877.06;;;10.59;89.51
59951;BME280;45812;53.540;9.774;2023-11-21T11:25:28;101880.97;;;10.55;89.82
59951;BME280;45812;53.540;9.774;2023-11-21T11:28:14;101880.56;;;10.59;89.86
59951;BME280;45812;53.540;9.774;2023-11-21T11:31:05;101877.50;;;10.64;89.49
59951;BME280;45812;53.540;9.774;2023-11-21T11:33:42;101886.19;;;10.76;88.99
59951;BME280;45812;53.540;9.774;2023-11-21T11:38:53;101885.69;;;10.82;88.19
59951;BME280;45812;53.540;9.774;2023-11-21T11:41:25;101888.75;;;10.87;87.11
59951;BME280;45812;53.540;9.774;2023-11-21T11:43:51;101887.91;;;10.86;87.69
59951;BME280;45812;53.540;9.774;2023-11-21T11:46:18;101894.38;;;10.93;86.09
59951;BME280;45812;53.540;9.774;2023-11-21T11:48:46;101888.50;;;11.00;85.71
59951;BME280;45812;53.540;9.774;2023-11-21T11:51:14;101894.94;;;11.07;86.43
59951;BME280;45812;53.540;9.774;2023-11-21T11:53:42;101887.66;;;11.09;84.55
59951;BME280;45812;53.540;9.774;2023-11-21T11:56:28;101895.53;;;11.20;83.81
59951;BME280;45812;53.540;9.774;2023-11-21T11:58:56;101901.28;;;11.35;82.45
59951;BME280;45812;53.540;9.774;2023-11-21T12:01:24;101893.97;;;11.56;81.31
59951;BME280;45812;53.540;9.774;2023-11-21T12:06:39;101897.50;;;12.13;78.35
59951;BME280;45812;53.540;9.774;2023-11-21T12:09:06;101902.78;;;12.23;77.03
59951;BME280;45812;53.540;9.774;2023-11-21T12:11:32;101910.56;;;12.06;76.16
59951;BME280;45812;53.540;9.774;2023-11-21T12:13:58;101917.09;;;11.94;76.24
59951;BME280;45812;53.540;9.774;2023-11-21T12:16:25;101919.47;;;11.78;75.83
59951;BME280;45812;53.540;9.774;2023-11-21T12:18:53;101929.59;;;11.65;76.65
59951;BME280;45812;53.540;9.774;2023-11-21T12:21:19;101940.97;;;11.47;76.66
59951;BME280;45812;53.540;9.774;2023-11-21T12:23:45;101935.78;;;11.27;75.66
59951;BME280;45812;53.540;9.774;2023-11-21T12:26:12;101954.00;;;11.12;75.53
59951;BME280;45812;53.540;9.774;2023-11-21T12:28:38;101956.50;;;11.04;76.98
59951;BME280;45812;53.540;9.774;2023-11-21T12:31:03;101950.31;;;10.93;77.74
59951;BME280;45812;53.540;9.774;2023-11-21T12:33:29;101966.72;;;10.89;78.24
59951;BME280;45812;53.540;9.774;2023-11-21T12:35:55;101965.56;;;10.82;78.34
59951;BME280;45812;53.540;9.774;2023-11-21T12:38:22;101958.25;;;10.74;79.50
59951;BME280;45812;53.540;9.774;2023-11-21T12:40:49;101964.97;;;10.69;79.56
59951;BME280;45812;53.540;9.774;2023-11-21T12:43:15;101962.00;;;10.62;79.98
59951;BME280;45812;53.540;9.774;2023-11-21T12:45:42;101960.44;;;10.59;79.88
59951;BME280;45812;53.540;9.774;2023-11-21T12:48:09;101973.44;;;10.53;80.06
59951;BME280;45812;53.540;9.774;2023-11-21T12:50:37;101976.09;;;10.43;80.13
59951;BME280;45812;53.540;9.774;2023-11-21T12:53:07;101987.25;;;10.37;81.60
59951;BME280;45812;53.540;9.774;2023-11-21T12:55:43;101980.91;;;10.28;83.19